Time;durP1;ratioP1;P1;durP2;ratioP2;P2;SDS_P1;SDS_P2;PMS_P1;PMS_P2;Temp;Humidity;BMP_temperature;BMP_pressure;BME280_temperature;BME280_humidity;BME280_pressure;Samples;Min_cycle;Max_cycle;Signal;HPM_P1;HPM_P2
2021/12/06 00:01:00;;;;;;;63.88;27.17;;;-2.90;91.80;;;-3.12;99.52;98860.41;5039193;27;116015;-81
2021/12/06 00:03:48;;;;;;;71.50;28.60;;;-2.90;91.70;;;-3.28;100.00;98862.78;5068434;27;129947;-81
2021/12/06 00:06:20;;;;;;;66.35;26.50;;;-3.00;92.70;;;-3.19;100.00;98875.69;5061187;27;129674;-80
2021/12/06 00:08:50;;;;;;;67.38;27.73;;;-2.90;92.40;;;-3.30;100.00;98864.06;5063904;27;119322;-81
2021/12/06 00:11:19;;;;;;;72.28;29.25;;;-3.00;93.10;;;-3.31;100.00;98854.47;5068607;27;114938;-81
2021/12/06 00:14:05;;;;;;;67.82;28.05;;;-3.00;94.00;;;-3.11;100.00;98862.03;5055443;27;129083;-83
2021/12/06 00:16:33;;;;;;;69.07;27.80;;;-3.00;94.80;;;-2.87;100.00;98872.53;5045349;27;129624;-82
2021/12/06 00:19:02;;;;;;;66.82;28.20;;;-2.90;95.10;;;-2.73;99.14;98868.53;5038764;27;117898;-82
2021/12/06 00:21:31;;;;;;;67.43;27.58;;;-2.90;95.20;;;-2.79;98.40;98869.47;5049336;27;115097;-82
2021/12/06 00:24:02;;;;;;;60.45;24.48;;;-2.90;94.60;;;-2.83;98.72;98852.44;5064275;27;129255;-80
2021/12/06 00:26:31;;;;;;;64.47;26.92;;;-2.90;94.30;;;-2.72;98.11;98854.22;5079379;27;129503;-81
2021/12/06 00:29:00;;;;;;;65.30;28.95;;;-2.90;94.30;;;-2.96;98.97;98854.34;5069898;27;117760;-79
2021/12/06 00:31:34;;;;;;;63.28;26.45;;;-2.90;93.60;;;-2.85;98.89;98854.50;5063644;27;116062;-80
2021/12/06 00:34:07;;;;;;;72.50;29.30;;;-2.90;93.90;;;-2.81;99.10;98850.34;5055387;27;129798;-79
2021/12/06 00:36:41;;;;;;;65.65;27.58;;;-2.90;94.50;;;-3.18;99.87;98856.03;5069635;27;129941;-83
2021/12/06 00:39:13;;;;;;;65.72;28.20;;;-2.90;94.20;;;-3.11;100.00;98856.72;5051306;27;118894;-81
2021/12/06 00:41:43;;;;;;;63.95;28.20;;;-2.90;94.70;;;-2.99;100.00;98849.50;5060635;27;102621;-81
2021/12/06 00:44:13;;;;;;;68.97;29.15;;;-2.90;95.10;;;-2.76;99.30;98847.75;5057330;27;129414;-81
2021/12/06 00:46:42;;;;;;;65.22;27.40;;;-2.90;95.60;;;-2.56;98.71;98840.13;5084403;27;130109;-79
2021/12/06 00:49:11;;;;;;;64.85;27.98;;;-2.80;96.00;;;-2.65;98.71;98838.09;5076272;27;118760;-82
2021/12/06 00:51:41;;;;;;;62.50;26.88;;;-2.80;95.70;;;-2.74;98.79;98838.50;5069603;27;115245;-82
2021/12/06 00:54:13;;;;;;;62.22;27.20;;;-2.80;95.40;;;-2.88;99.10;98831.91;5041491;27;129346;-81
2021/12/06 00:56:42;;;;;;;63.63;27.52;;;-2.90;95.10;;;-2.75;98.96;98841.41;5081685;27;129241;-81
2021/12/06 00:59:21;;;;;;;57.47;25.45;;;-2.80;95.40;;;-3.02;99.47;98844.69;5041379;27;118125;-81
2021/12/06 01:01:51;;;;;;;58.40;26.95;;;-2.90;94.10;;;-3.01;99.59;98846.25;5060267;27;115759;-80
2021/12/06 01:04:20;;;;;;;66.18;29.48;;;-2.90;94.50;;;-2.72;98.75;98839.06;5057731;27;131264;-82
2021/12/06 01:06:48;;;;;;;64.20;26.52;;;-2.90;95.00;;;-2.50;97.57;98834.91;5065674;27;129579;-82
2021/12/06 01:09:19;;;;;;;59.95;26.25;;;-2.80;95.10;;;-2.35;96.62;98832.47;5068466;27;118804;-84
2021/12/06 01:11:59;;;;;;;71.05;27.38;;;-2.80;95.00;;;-2.77;97.16;98831.03;5062080;27;116368;-82
2021/12/06 01:14:28;;;;;;;57.95;24.98;;;-2.80;93.20;;;-2.75;97.00;98830.78;5067257;27;129341;-81
2021/12/06 01:16:57;;;;;;;62.45;27.55;;;-2.90;92.60;;;-2.96;97.40;98827.78;5061166;27;129318;-80
2021/12/06 01:19:29;;;;;;;58.05;25.13;;;-2.90;92.50;;;-3.02;98.50;98828.75;5065862;27;119233;-80
2021/12/06 01:22:13;;;;;;;63.65;26.80;;;-3.00;92.30;;;-2.98;98.54;98837.03;5068185;27;115688;-80
2021/12/06 01:24:52;;;;;;;54.83;26.35;;;-3.00;92.60;;;-2.94;98.21;98836.31;5062193;27;129752;-80
2021/12/06 01:27:41;;;;;;;52.92;24.00;;;-3.00;92.40;;;-2.90;97.97;98837.47;5048776;27;129109;-80
2021/12/06 01:33:33;;;;;;;62.60;26.90;;;-2.90;92.20;;;-3.01;97.85;98824.22;5042351;27;115396;-79
2021/12/06 01:41:54;;;;;;;63.10;26.15;;;-2.90;90.90;;;-3.19;99.38;98817.28;5035582;27;118401;-80
2021/12/06 01:44:28;;;;;;;58.22;25.38;;;-2.90;90.50;;;-2.93;98.33;98822.00;5061533;27;115718;-81
2021/12/06 01:47:15;;;;;;;59.03;26.20;;;-2.90;90.60;;;-2.96;98.26;98822.47;5063483;27;129502;-82
2021/12/06 01:49:51;;;;;;;65.88;28.67;;;-2.90;90.10;;;-2.94;98.08;98820.38;5055626;27;129208;-83
2021/12/06 01:52:26;;;;;;;64.32;27.40;;;-2.80;89.30;;;-2.82;97.32;98814.19;5055260;27;117961;-83
2021/12/06 01:54:56;;;;;;;61.58;26.15;;;-2.80;89.60;;;-2.95;97.98;98818.75;5056763;27;115577;-82
2021/12/06 01:57:29;;;;;;;56.03;25.80;;;-2.80;88.40;;;-3.15;98.25;98818.41;5087869;27;130047;-83
2021/12/06 01:59:58;;;;;;;69.50;28.90;;;-2.90;87.50;;;-2.85;98.08;98812.84;5055383;27;129940;-84
2021/12/06 02:02:29;;;;;;;64.15;27.67;;;-2.80;89.10;;;-2.62;97.42;98822.47;5046783;27;118134;-82
2021/12/06 02:04:58;;;;;;;68.75;28.77;;;-2.70;88.60;;;-2.65;96.99;98812.38;5041357;27;114688;-83
2021/12/06 02:07:29;;;;;;;67.72;29.50;;;-2.70;87.90;;;-2.59;96.66;98806.06;5059003;27;130024;-82
2021/12/06 02:10:01;;;;;;;63.78;28.20;;;-2.70;87.60;;;-2.88;97.31;98808.00;5049152;27;129214;-82
2021/12/06 02:12:36;;;;;;;65.05;28.92;;;-2.70;85.60;;;-2.95;98.02;98813.44;5055258;27;119198;-86
2021/12/06 02:15:19;;;;;;;67.35;29.50;;;-2.70;86.00;;;-2.72;97.43;98806.41;5056211;27;115223;-85
2021/12/06 02:17:56;;;;;;;63.17;27.35;;;-2.70;86.50;;;-3.04;98.12;98795.50;5068415;27;130486;-85
2021/12/06 02:20:28;;;;;;;67.93;27.65;;;-2.80;86.00;;;-2.94;98.77;98795.69;5045533;27;129152;-86
2021/12/06 02:22:59;;;;;;;71.25;30.52;;;-2.70;87.20;;;-2.88;98.08;98797.38;5066549;27;118158;-85
2021/12/06 02:25:28;;;;;;;70.78;28.92;;;-2.70;87.50;;;-2.77;98.04;98801.00;5070046;27;115155;-85
2021/12/06 02:27:58;;;;;;;70.75;29.92;;;-2.70;87.80;;;-2.91;98.12;98805.84;5063649;27;129864;-85
2021/12/06 02:30:27;;;;;;;68.00;29.75;;;-2.70;86.90;;;-3.12;98.95;98807.31;5052816;27;128965;-85
2021/12/06 02:32:56;;;;;;;70.90;28.73;;;-2.80;86.50;;;-2.81;98.55;98807.84;5033400;27;117926;-85
2021/12/06 02:35:25;;;;;;;68.50;29.13;;;-2.70;88.10;;;-2.74;98.00;98805.84;5038123;27;115199;-84
2021/12/06 02:38:02;;;;;;;77.63;30.60;;;-2.70;88.20;;;-2.70;97.14;98809.59;5055279;27;129654;-84
2021/12/06 02:40:35;;;;;;;69.30;30.05;;;-2.70;88.00;;;-2.78;97.99;98815.34;5047111;27;129910;-84
2021/12/06 02:43:09;;;;;;;70.75;28.17;;;-2.70;87.70;;;-2.94;98.70;98804.44;5068919;27;118875;-84
2021/12/06 02:45:39;;;;;;;63.70;28.40;;;-2.70;88.60;;;-2.79;98.41;98800.44;5068584;27;116006;-83
2021/12/06 02:48:13;;;;;;;68.78;29.23;;;-2.70;89.20;;;-2.70;98.87;98804.31;5053632;27;129934;-84
2021/12/06 02:50:47;;;;;;;79.80;30.48;;;-2.70;89.80;;;-2.76;98.76;98799.94;5054928;27;128944;-84
2021/12/06 02:53:18;;;;;;;63.72;27.98;;;-2.70;90.00;;;-2.72;98.40;98811.72;5051982;27;117998;-82
2021/12/06 02:55:58;;;;;;;70.72;31.42;;;-2.60;90.40;;;-2.98;98.99;98823.75;5061526;27;115197;-81
2021/12/06 02:58:55;;;;;;;68.40;28.45;;;-2.70;90.20;;;-2.67;98.58;98822.41;5044836;27;129006;-81
2021/12/06 03:01:31;;;;;;;73.72;29.17;;;-2.70;90.70;;;-2.43;97.54;98830.22;5065760;27;129751;-81
2021/12/06 03:04:02;;;;;;;67.17;29.53;;;-2.60;91.00;;;-2.62;97.71;98827.78;5063901;27;119165;-81
2021/12/06 03:06:32;;;;;;;65.75;30.38;;;-2.60;90.30;;;-2.35;97.20;98829.81;5062897;27;115062;-84
2021/12/06 03:09:13;;;;;;;77.22;33.85;;;-2.50;91.10;;;-2.49;97.61;98829.34;5050590;27;129768;-83
2021/12/06 03:11:45;;;;;;;83.00;29.98;;;-2.60;90.90;;;-2.28;97.40;98833.09;5055730;27;128619;-84
2021/12/06 03:14:18;;;;;;;78.07;31.33;;;-2.50;91.50;;;-2.24;97.07;98828.91;5068370;27;118992;-82
2021/12/06 03:16:49;;;;;;;76.35;30.05;;;-2.50;91.50;;;-2.33;97.25;98834.91;5047979;27;115190;-82
2021/12/06 03:19:19;;;;;;;75.28;31.02;;;-2.50;91.40;;;-2.48;98.14;98830.13;5066822;27;129831;-80
2021/12/06 03:21:48;;;;;;;72.25;30.83;;;-2.50;91.70;;;-2.56;98.87;98829.50;5055333;27;129511;-81
2021/12/06 03:24:24;;;;;;;76.38;31.55;;;-2.50;92.50;;;-2.51;99.21;98828.75;5064215;27;119039;-79
2021/12/06 03:26:54;;;;;;;82.13;32.72;;;-2.50;93.20;;;-2.44;99.30;98833.94;5056992;27;116386;-79
2021/12/06 03:29:24;;;;;;;76.47;32.05;;;-2.50;93.90;;;-2.49;99.72;98839.16;5066460;27;130023;-80
2021/12/06 03:31:55;;;;;;;87.50;32.10;;;-2.50;94.40;;;-2.70;100.00;98828.19;5059877;27;130089;-79
2021/12/06 03:34:26;;;;;;;76.38;31.50;;;-2.60;95.00;;;-2.72;100.00;98822.34;5069203;27;118362;-81
2021/12/06 03:37:01;;;;;;;81.72;31.95;;;-2.60;96.20;;;-2.69;100.00;98832.47;5053725;27;115985;-77
2021/12/06 03:39:36;;;;;;;82.20;32.13;;;-2.60;96.90;;;-2.82;100.00;98832.78;5059556;27;130024;-79
2021/12/06 03:42:11;;;;;;;85.22;32.35;;;-2.60;97.50;;;-2.65;100.00;98838.94;5059414;27;129504;-79
2021/12/06 03:44:41;;;;;;;83.55;33.58;;;-2.60;98.20;;;-2.51;100.00;98833.28;5063842;27;118518;-79
2021/12/06 03:47:16;;;;;;;90.13;34.13;;;-2.50;99.00;;;-2.40;100.00;98827.06;5054070;27;115027;-78
2021/12/06 03:49:47;;;;;;;86.55;34.17;;;-2.50;99.30;;;-2.51;100.00;98833.28;5063517;27;130067;-78
2021/12/06 03:52:18;;;;;;;82.65;35.25;;;-2.50;99.50;;;-2.66;100.00;98829.34;5049384;27;129566;-78
2021/12/06 03:54:53;;;;;;;84.97;34.30;;;-2.50;99.90;;;-2.57;100.00;98835.88;5067132;27;118744;-78
2021/12/06 03:57:23;;;;;;;92.00;34.70;;;-2.60;99.90;;;-2.62;100.00;98827.78;5049630;27;114595;-79
2021/12/06 03:59:53;;;;;;;86.03;34.35;;;-2.60;99.90;;;-2.55;100.00;98833.75;5069877;27;129966;-78
2021/12/06 04:02:27;;;;;;;77.68;31.30;;;-2.60;99.90;;;-2.48;100.00;98819.50;5057933;27;129518;-78
2021/12/06 04:04:57;;;;;;;83.28;33.47;;;-2.50;99.90;;;-2.71;100.00;98822.09;5045103;27;118442;-77
2021/12/06 04:07:30;;;;;;;90.03;34.13;;;-2.50;99.90;;;-2.66;100.00;98805.44;5015794;27;115922;-78
2021/12/06 04:10:00;;;;;;;84.30;31.58;;;-2.50;99.90;;;-2.70;100.00;98809.59;5032411;27;129738;-78
2021/12/06 04:12:31;;;;;;;90.03;34.40;;;-2.50;99.90;;;-2.51;100.00;98804.06;5022753;27;129654;-77
2021/12/06 04:14:59;;;;;;;93.43;34.35;;;-2.50;99.90;;;-2.81;100.00;98798.00;5020579;27;118664;-84
2021/12/06 04:17:28;;;;;;;85.45;34.03;;;-2.50;99.90;;;-2.60;100.00;98795.69;5044384;27;115903;-80
2021/12/06 04:19:57;;;;;;;91.22;34.10;;;-2.50;99.90;;;-2.63;100.00;98794.31;5029973;27;130173;-77
2021/12/06 04:22:27;;;;;;;87.10;32.17;;;-2.50;99.90;;;-2.54;100.00;98803.50;5013175;27;128972;-78
2021/12/06 04:24:58;;;;;;;92.20;35.30;;;-2.50;99.90;;;-2.85;100.00;98801.41;5029929;27;117834;-77
2021/12/06 04:27:28;;;;;;;79.28;32.85;;;-2.60;99.90;;;-2.79;100.00;98801.25;5027325;27;116374;-80
2021/12/06 04:29:59;;;;;;;79.50;30.63;;;-2.60;99.90;;;-2.84;100.00;98805.66;5031090;27;129971;-81
2021/12/06 04:32:29;;;;;;;88.13;34.33;;;-2.60;99.90;;;-2.90;100.00;98799.44;4996699;27;128720;-81
2021/12/06 04:34:58;;;;;;;85.65;33.75;;;-2.60;99.90;;;-2.83;100.00;98804.63;5013394;27;118209;-79
2021/12/06 04:37:28;;;;;;;89.03;31.90;;;-2.60;99.90;;;-2.71;100.00;98808.03;5027080;27;115668;-74
2021/12/06 04:39:57;;;;;;;87.63;33.13;;;-2.50;99.90;;;-2.73;100.00;98804.78;5029287;27;130356;-74
2021/12/06 04:42:27;;;;;;;83.45;32.95;;;-2.50;99.90;;;-2.47;100.00;98813.16;5044487;27;130593;-82
2021/12/06 04:44:58;;;;;;;85.47;31.10;;;-2.50;99.90;;;-2.49;100.00;98815.25;5030357;27;118590;-81
2021/12/06 04:47:26;;;;;;;86.60;32.00;;;-2.50;99.90;;;-2.30;100.00;98807.84;5026090;27;115653;-81
2021/12/06 04:49:55;;;;;;;78.38;29.90;;;-2.40;99.90;;;-2.38;100.00;98806.38;5011366;27;129913;-81
2021/12/06 04:52:25;;;;;;;92.15;34.33;;;-2.40;99.90;;;-2.24;100.00;98807.66;5024568;27;129640;-81
2021/12/06 04:54:59;;;;;;;85.70;31.05;;;-2.40;99.90;;;-2.07;100.00;98806.81;5028441;27;118135;-84
2021/12/06 04:57:37;;;;;;;80.90;32.72;;;-2.30;99.90;;;-2.08;100.00;98806.00;5026130;27;115740;-84
2021/12/06 05:00:15;;;;;;;75.57;28.90;;;-2.30;99.90;;;-2.35;100.00;98809.34;5025810;27;129959;-84
2021/12/06 05:02:44;;;;;;;81.15;30.80;;;-2.30;99.90;;;-2.24;100.00;98796.22;5012765;27;129813;-84
2021/12/06 05:05:22;;;;;;;78.00;30.55;;;-2.30;99.90;;;-2.37;100.00;98797.34;5008504;27;117850;-81
2021/12/06 05:08:01;;;;;;;84.55;32.00;;;-2.30;99.90;;;-2.30;100.00;98798.00;4996577;28;115266;-80
2021/12/06 05:10:32;;;;;;;76.97;30.50;;;-2.30;99.90;;;-2.25;100.00;98799.94;5009787;28;129673;-83
2021/12/06 05:13:02;;;;;;;93.47;31.73;;;-2.30;99.90;;;-2.18;100.00;98801.34;5006322;28;129934;-82
2021/12/06 05:15:32;;;;;;;87.47;30.38;;;-2.30;99.90;;;-2.05;100.00;98800.19;4992931;28;118855;-82
2021/12/06 05:18:24;;;;;;;81.82;31.10;;;-2.30;99.90;;;-2.03;100.00;98807.94;5009027;28;115957;-83
2021/12/06 05:20:54;;;;;;;88.55;30.85;;;-2.20;99.90;;;-2.14;100.00;98806.19;4996018;28;129057;-83
2021/12/06 05:23:24;;;;;;;81.28;29.73;;;-2.20;99.90;;;-2.69;100.00;98805.13;4996383;28;128891;-82
2021/12/06 05:25:53;;;;;;;94.40;32.97;;;-2.30;99.90;;;-2.67;100.00;98798.50;5013048;28;118924;-83
2021/12/06 05:28:27;;;;;;;83.25;31.67;;;-2.30;99.90;;;-2.67;100.00;98806.47;4996663;28;114988;-80
2021/12/06 05:30:57;;;;;;;85.10;31.63;;;-2.40;99.90;;;-2.76;100.00;98805.25;5009438;28;130367;-79
2021/12/06 05:33:31;;;;;;;83.75;30.83;;;-2.40;99.90;;;-2.97;100.00;98804.94;5009595;28;129411;-80
2021/12/06 05:36:03;;;;;;;80.82;30.80;;;-2.50;99.90;;;-3.04;100.00;98798.94;5013042;28;118433;-79
2021/12/06 05:38:32;;;;;;;96.85;33.17;;;-2.50;99.90;;;-3.02;100.00;98798.72;4993895;28;116111;-80
2021/12/06 05:41:02;;;;;;;96.75;32.42;;;-2.50;99.90;;;-2.94;100.00;98807.09;5030078;27;130714;-84
2021/12/06 05:43:33;;;;;;;95.72;31.70;;;-2.50;99.90;;;-2.92;100.00;98812.97;5009433;28;129858;-81
2021/12/06 05:46:02;;;;;;;79.40;32.80;;;-2.40;99.90;;;-2.80;100.00;98814.78;5012761;28;119147;-81
2021/12/06 05:48:31;;;;;;;75.50;31.52;;;-2.40;99.90;;;-2.57;100.00;98825.25;4996299;28;114880;-83
2021/12/06 05:51:16;;;;;;;93.90;32.72;;;-2.40;99.90;;;-2.45;100.00;98827.00;5027030;28;129842;-84
2021/12/06 05:53:45;;;;;;;81.13;32.65;;;-2.40;99.90;;;-2.35;100.00;98838.59;5016174;27;128779;-81
2021/12/06 05:56:14;;;;;;;93.13;35.63;;;-2.30;99.90;;;-2.07;100.00;98844.03;5048146;27;118650;-82
2021/12/06 05:58:56;;;;;;;88.88;33.33;;;-2.30;99.90;;;-1.97;100.00;98852.16;5030322;27;115767;-82
2021/12/06 06:01:29;;;;;;;89.20;31.42;;;-2.20;99.90;;;-1.96;100.00;98848.47;5032708;27;129900;-81
2021/12/06 06:04:01;;;;;;;90.22;31.95;;;-2.20;99.90;;;-2.24;100.00;98857.38;5047161;27;129947;-80
2021/12/06 06:06:31;;;;;;;84.25;31.17;;;-2.20;99.90;;;-2.31;100.00;98849.53;5015487;27;118069;-80
2021/12/06 06:09:01;;;;;;;76.88;30.85;;;-2.30;99.90;;;-2.42;100.00;98858.41;5049690;27;115988;-82
2021/12/06 06:11:30;;;;;;;69.63;29.92;;;-2.30;99.90;;;-2.47;100.00;98866.31;5047334;27;129924;-82
2021/12/06 06:14:00;;;;;;;72.93;27.70;;;-2.30;99.90;;;-2.45;100.00;98864.22;5029151;27;130637;-80
2021/12/06 06:16:32;;;;;;;79.40;30.13;;;-2.30;99.90;;;-2.42;100.00;98863.72;5047198;27;118945;-80
2021/12/06 06:19:01;;;;;;;71.63;28.70;;;-2.30;99.90;;;-2.13;100.00;98872.41;5047439;27;115961;-82
2021/12/06 06:21:30;;;;;;;77.10;30.77;;;-2.20;99.90;;;-2.29;100.00;98874.03;5029204;27;129954;-79
2021/12/06 06:24:00;;;;;;;72.10;29.95;;;-2.20;99.90;;;-2.55;100.00;98873.63;5032182;27;129228;-79
2021/12/06 06:26:28;;;;;;;77.15;30.08;;;-2.30;99.90;;;-2.17;100.00;98881.91;5030926;27;118263;-80
2021/12/06 06:28:59;;;;;;;71.43;28.50;;;-2.20;99.90;;;-2.19;100.00;98898.09;5046615;27;116170;-80
2021/12/06 06:31:27;;;;;;;74.00;30.08;;;-2.20;99.90;;;-2.15;100.00;98889.66;5046741;27;129971;-80
2021/12/06 06:33:56;;;;;;;62.83;27.05;;;-2.20;99.90;;;-2.25;100.00;98893.75;5046153;27;129424;-81
2021/12/06 06:36:25;;;;;;;65.78;26.77;;;-2.20;99.90;;;-2.03;100.00;98891.16;5029992;27;118477;-82
2021/12/06 06:38:53;;;;;;;66.60;28.98;;;-2.20;99.90;;;-1.94;100.00;98896.88;5045120;27;116409;-83
2021/12/06 06:41:22;;;;;;;66.95;27.63;;;-2.10;99.90;;;-1.81;99.50;98901.88;5030332;27;130017;-83
2021/12/06 06:43:55;;;;;;;58.80;25.05;;;-2.00;99.90;;;-1.78;98.98;98910.41;5029790;27;128899;-83
2021/12/06 06:46:26;;;;;;;58.47;24.88;;;-2.10;99.20;;;-1.75;98.16;98916.03;5045449;27;118765;-83
2021/12/06 06:48:56;;;;;;;58.85;24.08;;;-2.00;98.40;;;-1.75;97.08;98917.91;5027311;27;116303;-83
2021/12/06 06:51:28;;;;;;;56.72;23.83;;;-2.00;96.50;;;-1.75;96.90;98910.72;5029909;27;128761;-83
2021/12/06 06:53:57;;;;;;;54.70;24.33;;;-2.00;95.20;;;-1.75;96.70;98917.91;5046926;27;129250;-78
2021/12/06 06:56:26;;;;;;;51.65;24.00;;;-2.00;94.30;;;-1.78;96.32;98916.53;5044935;27;119383;-77
2021/12/06 06:59:01;;;;;;;46.80;22.63;;;-2.00;92.70;;;-1.73;95.82;98918.44;5026955;27;115976;-78
2021/12/06 07:01:32;;;;;;;51.35;23.88;;;-2.00;91.80;;;-1.64;95.69;98912.47;5044256;27;129670;-78
2021/12/06 07:04:02;;;;;;;49.08;22.83;;;-2.00;91.40;;;-1.54;95.25;98917.13;5045034;27;130208;-79
2021/12/06 07:06:30;;;;;;;44.65;22.30;;;-1.90;90.60;;;-1.71;95.18;98916.38;5044976;27;118811;-78
2021/12/06 07:08:59;;;;;;;48.53;23.33;;;-1.90;88.00;;;-1.56;94.87;98918.41;5045262;27;116063;-79
2021/12/06 07:11:29;;;;;;;52.40;22.50;;;-1.90;87.40;;;-1.55;94.12;98910.19;5029648;27;129246;-79
2021/12/06 07:13:58;;;;;;;49.13;22.30;;;-1.90;85.50;;;-1.47;94.13;98904.44;5044318;27;129830;-78
2021/12/06 07:16:29;;;;;;;51.70;22.73;;;-1.90;84.60;;;-1.53;94.12;98900.09;5044451;27;118776;-79
2021/12/06 07:19:00;;;;;;;48.80;22.70;;;-1.80;84.40;;;-1.49;93.85;98901.22;5029800;27;115462;-79
2021/12/06 07:21:32;;;;;;;50.10;22.70;;;-1.80;83.10;;;-1.46;93.84;98903.38;5044052;27;130183;-78
2021/12/06 07:24:02;;;;;;;54.55;24.40;;;-1.80;81.60;;;-1.54;94.08;98901.16;5037832;27;130029;-79
2021/12/06 07:26:32;;;;;;;53.97;22.33;;;-1.80;80.60;;;-1.49;94.13;98903.88;5011993;28;118397;-77
2021/12/06 07:29:07;;;;;;;50.45;23.08;;;-1.80;81.60;;;-1.62;94.62;98909.56;5011887;28;116146;-79
2021/12/06 07:31:35;;;;;;;49.65;24.25;;;-1.80;81.40;;;-1.56;94.91;98919.22;4994088;28;128958;-78
2021/12/06 07:34:05;;;;;;;50.35;22.30;;;-1.80;83.00;;;-1.39;94.44;98919.16;5025888;28;129728;-79
2021/12/06 07:36:34;;;;;;;47.97;23.73;;;-1.80;84.00;;;-1.39;94.23;98915.69;5031490;27;118834;-79
2021/12/06 07:39:04;;;;;;;50.35;25.25;;;-1.80;83.90;;;-1.43;95.09;98922.56;5043092;27;116496;-80
2021/12/06 07:41:33;;;;;;;47.53;22.80;;;-1.80;84.20;;;-1.15;94.49;98930.38;5044230;27;129947;-81
2021/12/06 07:44:02;;;;;;;50.53;22.60;;;-1.70;85.70;;;-1.09;93.60;98933.94;5039849;27;129447;-80
2021/12/06 07:46:30;;;;;;;52.72;24.98;;;-1.60;83.90;;;-0.91;93.21;98935.44;5025351;28;119148;-80
2021/12/06 07:48:59;;;;;;;51.67;24.67;;;-1.60;85.10;;;-0.94;92.87;98943.94;5025831;28;116054;-80
2021/12/06 07:51:31;;;;;;;50.15;23.30;;;-1.50;82.90;;;-0.80;92.67;98947.03;5026232;28;129763;-81
2021/12/06 07:54:02;;;;;;;50.17;23.77;;;-1.50;84.10;;;-0.63;92.14;98941.59;5010828;28;130145;-84
2021/12/06 07:56:31;;;;;;;49.40;23.80;;;-1.40;84.60;;;-0.56;91.78;98940.34;5025190;28;118701;-83
2021/12/06 07:59:00;;;;;;;52.55;23.90;;;-1.40;84.20;;;-0.52;91.09;98943.31;5025010;28;115677;-83
2021/12/06 08:01:29;;;;;;;49.38;23.85;;;-1.40;82.10;;;-0.48;90.92;98939.09;5009631;28;129360;-82
2021/12/06 08:03:59;;;;;;;49.47;23.52;;;-1.40;82.00;;;-0.50;90.78;98935.84;5024451;28;129585;-83
2021/12/06 08:06:30;;;;;;;46.70;22.63;;;-1.30;80.50;;;-0.60;90.63;98938.44;5025543;28;119188;-83
2021/12/06 08:08:59;;;;;;;52.17;22.60;;;-1.40;78.40;;;-0.60;90.31;98919.78;5025028;28;116136;-83
2021/12/06 08:11:28;;;;;;;45.33;22.20;;;-1.40;77.90;;;-0.57;90.62;98925.41;5023596;28;129897;-81
2021/12/06 08:14:04;;;;;;;51.05;22.63;;;-1.40;77.30;;;-0.46;90.36;98920.97;5027636;28;129907;-82
2021/12/06 08:16:40;;;;;;;50.10;23.47;;;-1.30;77.80;;;-0.43;90.12;98919.66;5010350;28;118383;-83
2021/12/06 08:19:10;;;;;;;47.40;22.75;;;-1.30;76.80;;;-0.35;90.09;98918.41;5024758;28;115865;-82
2021/12/06 08:21:43;;;;;;;50.97;23.80;;;-1.30;76.00;;;-0.19;89.56;98915.63;4992168;28;129106;-82
2021/12/06 08:24:12;;;;;;;50.08;24.10;;;-1.20;76.90;;;-0.15;89.17;98915.91;5023044;28;129773;-82
2021/12/06 08:26:44;;;;;;;45.70;22.75;;;-1.10;73.70;;;-0.46;89.49;98926.31;5023389;28;119154;-82
2021/12/06 08:29:20;;;;;;;49.97;23.63;;;-1.20;72.00;;;-0.47;89.24;98924.69;5005721;28;115857;-84
2021/12/06 08:31:48;;;;;;;46.25;21.38;;;-1.20;71.60;;;-0.63;89.89;98920.28;5005194;28;129845;-83
2021/12/06 08:34:17;;;;;;;46.70;22.73;;;-1.30;70.90;;;-0.37;88.97;98919.44;5008374;28;129602;-82
2021/12/06 08:36:47;;;;;;;49.55;23.25;;;-1.20;70.20;;;-0.70;89.32;98906.34;5025277;28;118701;-82
2021/12/06 08:39:17;;;;;;;47.05;22.25;;;-1.30;66.30;;;-0.69;88.60;98902.63;5007845;28;116176;-82
2021/12/06 08:41:46;;;;;;;48.80;21.88;;;-1.30;65.60;;;-1.25;90.02;98914.28;5004981;28;129944;-82
2021/12/06 08:44:15;;;;;;;46.92;22.25;;;-1.40;62.80;;;-0.86;90.33;98919.50;5008333;28;129296;-82
2021/12/06 08:46:44;;;;;;;50.95;24.80;;;-1.40;68.20;;;-0.64;89.62;98911.50;5008911;28;118284;-83
2021/12/06 08:49:13;;;;;;;52.70;23.63;;;-1.40;67.40;;;-0.30;88.81;98899.78;5008733;28;115545;-83
2021/12/06 08:51:48;;;;;;;45.60;22.27;;;-1.20;69.40;;;-0.19;87.29;98904.94;5022634;28;130633;-83
2021/12/06 08:54:18;;;;;;;46.03;21.75;;;-1.10;66.70;;;-0.07;86.60;98896.75;5023099;28;130080;-83
2021/12/06 08:56:49;;;;;;;46.78;22.08;;;-1.00;62.70;;;-0.10;85.91;98897.25;5023386;28;118984;-83
2021/12/06 08:59:18;;;;;;;48.28;21.58;;;-1.00;59.60;;;-0.41;86.87;98889.00;5023449;28;115796;-83
2021/12/06 09:01:47;;;;;;;42.85;20.65;;;-1.10;57.30;;;-0.13;86.53;98887.09;5006841;28;129676;-83
2021/12/06 09:04:17;;;;;;;46.33;22.88;;;-1.10;58.50;;;-0.26;85.04;98887.53;5008059;28;128573;-83
2021/12/06 09:06:51;;;;;;;43.30;21.95;;;-1.00;52.40;;;0.03;84.89;98884.53;4992605;28;117674;-83
2021/12/06 09:09:22;;;;;;;42.80;21.52;;;-1.00;55.30;;;0.22;84.36;98877.72;5005656;28;116077;-82
2021/12/06 09:11:53;;;;;;;47.08;20.55;;;-0.80;55.40;;;0.46;83.65;98888.00;5004795;28;129709;-83
2021/12/06 09:14:22;;;;;;;51.30;23.73;;;-0.70;53.40;;;0.43;83.23;98883.16;5004901;28;129746;-83
2021/12/06 09:16:51;;;;;;;45.20;21.10;;;-0.70;51.40;;;0.01;83.41;98876.78;5023275;28;118654;-82
2021/12/06 09:19:20;;;;;;;48.13;22.20;;;-0.80;46.20;;;0.29;82.86;98872.94;5022834;28;115886;-84
2021/12/06 09:21:50;;;;;;;46.40;22.65;;;-0.80;47.90;;;0.12;83.33;98872.31;5022499;28;129824;-83
2021/12/06 09:24:21;;;;;;;42.67;21.38;;;-0.80;47.40;;;-0.41;84.80;98870.34;4991325;28;128964;-83
2021/12/06 09:26:50;;;;;;;49.63;23.17;;;-0.90;46.50;;;0.17;84.06;98867.00;5004835;28;119625;-83
2021/12/06 09:29:19;;;;;;;42.30;20.98;;;-0.70;51.00;;;0.36;83.06;98862.06;5008231;28;114680;-83
2021/12/06 09:31:48;;;;;;;41.42;21.45;;;-0.60;47.80;;;0.20;83.05;98847.00;4990872;28;129106;-81
2021/12/06 09:34:17;;;;;;;41.03;20.55;;;-0.60;45.50;;;0.22;84.13;98850.22;5025090;28;129490;-82
2021/12/06 09:36:45;;;;;;;47.08;20.52;;;-0.60;47.90;;;0.37;83.19;98852.16;5004797;28;118878;-82
2021/12/06 09:39:29;;;;;;;44.10;19.48;;;-0.60;45.70;;;-0.11;82.93;98847.66;5019927;28;115581;-82
2021/12/06 09:41:57;;;;;;;41.70;21.60;;;-0.70;41.70;;;0.01;84.31;98843.97;5023894;28;129508;-83
2021/12/06 09:44:27;;;;;;;41.83;20.73;;;-0.70;45.70;;;-0.15;84.18;98841.22;5007444;28;129013;-82
2021/12/06 09:46:56;;;;;;;38.80;19.98;;;-0.70;45.00;;;-0.17;83.91;98843.34;5007723;28;117669;-81
2021/12/06 09:49:25;;;;;;;51.20;21.95;;;-0.70;43.70;;;0.37;82.89;98836.94;5008470;28;115471;-82
2021/12/06 09:52:00;;;;;;;37.90;19.75;;;-0.60;45.90;;;-0.06;83.63;98833.53;5022338;28;129565;-82
2021/12/06 09:54:34;;;;;;;37.92;18.70;;;-0.70;43.70;;;0.09;83.14;98835.47;5022541;28;130334;-82
2021/12/06 09:57:05;;;;;;;39.97;19.15;;;-0.60;42.30;;;-0.04;82.55;98834.09;5007059;28;117921;-82
2021/12/06 09:59:36;;;;;;;35.72;18.70;;;-0.60;38.90;;;0.80;81.31;98834.19;5023299;28;115783;-83
2021/12/06 10:02:10;;;;;;;36.83;18.90;;;-0.30;42.30;;;1.09;79.04;98842.50;5021838;28;129621;-83
2021/12/06 10:04:44;;;;;;;40.25;20.38;;;-0.10;39.50;;;1.05;79.27;98847.56;5024739;28;130174;-82
2021/12/06 10:07:14;;;;;;;37.60;19.25;;;-0.10;37.70;;;1.16;77.76;98837.72;5026057;28;119119;-82
2021/12/06 10:09:46;;;;;;;36.40;19.63;;;0.10;34.60;;;0.86;77.92;98843.81;5027507;28;115757;-82
2021/12/06 10:12:16;;;;;;;43.15;20.05;;;0.00;31.50;;;0.93;79.53;98839.00;5011443;28;130484;-82
2021/12/06 10:14:46;;;;;;;41.45;20.60;;;-0.10;37.40;;;1.42;77.56;98841.22;5032705;28;129892;-82
2021/12/06 10:17:17;;;;;;;43.53;21.45;;;0.10;36.00;;;1.83;76.03;98844.94;5030076;28;118999;-83
2021/12/06 10:19:48;;;;;;;39.50;19.95;;;0.30;34.50;;;2.07;75.24;98831.78;5029541;28;115537;-82
2021/12/06 10:22:18;;;;;;;40.25;18.73;;;0.50;32.10;;;1.58;75.50;98833.97;5011997;28;130014;-82
2021/12/06 10:24:55;;;;;;;37.20;19.55;;;0.30;30.60;;;1.89;74.93;98850.00;5009379;28;129923;-83